Time;durP1;ratioP1;P1;durP2;ratioP2;P2;SDS_P1;SDS_P2;PMS_P1;PMS_P2;Temp;Humidity;BMP_temperature;BMP_pressure;BME280_temperature;BME280_humidity;BME280_pressure;Samples;Min_cycle;Max_cycle;Signal;HPM_P1;HPM_P2
2021/07/31 00:01:06;;;;;;;4.27;1.77;;;;;;;;;;5030883;28;20399;-48
2021/07/31 00:03:32;;;;;;;2.33;2.13;;;;;;;;;;5030662;28;20481;-47
2021/07/31 00:05:58;;;;;;;3.53;2.00;;;;;;;;;;5030592;28;20483;-47
2021/07/31 00:08:24;;;;;;;3.03;2.13;;;;;;;;;;5030754;28;20408;-47
2021/07/31 00:10:51;;;;;;;3.63;1.97;;;;;;;;;;5030298;28;20490;-48
2021/07/31 00:13:17;;;;;;;4.00;1.77;;;;;;;;;;5030622;28;20390;-48
2021/07/31 00:15:42;;;;;;;3.87;2.20;;;;;;;;;;5030568;28;20466;-47
2021/07/31 00:18:09;;;;;;;4.73;2.30;;;;;;;;;;5030544;28;20406;-47
2021/07/31 00:20:35;;;;;;;2.10;2.00;;;;;;;;;;5030216;28;20493;-48
2021/07/31 00:23:01;;;;;;;3.33;1.67;;;;;;;;;;5030685;28;20827;-47
2021/07/31 00:25:27;;;;;;;3.77;2.20;;;;;;;;;;5030473;28;20448;-48
2021/07/31 00:27:53;;;;;;;4.33;1.90;;;;;;;;;;5030717;28;20466;-48
2021/07/31 00:30:23;;;;;;;4.63;2.10;;;;;;;;;;5030173;28;20439;-48
2021/07/31 00:32:49;;;;;;;4.83;2.37;;;;;;;;;;5030477;28;20435;-47
2021/07/31 00:35:15;;;;;;;3.23;1.43;;;;;;;;;;5030428;28;20508;-48
2021/07/31 00:37:41;;;;;;;4.37;1.80;;;;;;;;;;5030380;28;20411;-48
2021/07/31 00:40:07;;;;;;;2.20;1.87;;;;;;;;;;5030010;28;20435;-47
2021/07/31 00:42:33;;;;;;;3.23;2.00;;;;;;;;;;5030400;28;20426;-47
2021/07/31 00:44:59;;;;;;;5.90;1.97;;;;;;;;;;5030332;28;20940;-47
2021/07/31 00:47:25;;;;;;;3.77;2.00;;;;;;;;;;5030613;28;20748;-47
2021/07/31 00:49:51;;;;;;;5.93;2.00;;;;;;;;;;5032541;28;20406;-47
2021/07/31 00:52:17;;;;;;;3.33;2.00;;;;;;;;;;5034111;28;20430;-47
2021/07/31 00:54:43;;;;;;;3.57;2.00;;;;;;;;;;5034062;28;20386;-49
2021/07/31 00:57:09;;;;;;;3.83;2.23;;;;;;;;;;5034152;28;20381;-47
2021/07/31 00:59:35;;;;;;;2.40;1.97;;;;;;;;;;5033871;28;20413;-47
2021/07/31 01:02:01;;;;;;;4.63;1.50;;;;;;;;;;5033169;28;20437;-49
2021/07/31 01:04:27;;;;;;;8.30;2.10;;;;;;;;;;5033257;28;20426;-49
2021/07/31 01:06:53;;;;;;;3.20;2.00;;;;;;;;;;5033388;28;20517;-47
2021/07/31 01:09:19;;;;;;;6.40;2.20;;;;;;;;;;5033851;28;20780;-47
2021/07/31 01:11:45;;;;;;;5.77;1.77;;;;;;;;;;5033403;28;20414;-48
2021/07/31 01:14:11;;;;;;;3.73;2.10;;;;;;;;;;5033756;28;20382;-49
2021/07/31 01:16:38;;;;;;;5.43;1.90;;;;;;;;;;5033622;28;20441;-47
2021/07/31 01:19:04;;;;;;;6.47;2.63;;;;;;;;;;5033608;28;20369;-48
2021/07/31 01:21:35;;;;;;;3.97;2.03;;;;;;;;;;5033367;28;20426;-48
2021/07/31 01:24:01;;;;;;;8.60;2.00;;;;;;;;;;5033671;28;20744;-47
2021/07/31 01:26:27;;;;;;;5.07;2.17;;;;;;;;;;5033437;28;20421;-47
2021/07/31 01:28:53;;;;;;;7.40;1.90;;;;;;;;;;5033511;28;20390;-47
2021/07/31 01:31:19;;;;;;;2.50;1.73;;;;;;;;;;5033202;28;20406;-47
2021/07/31 01:33:45;;;;;;;10.43;2.10;;;;;;;;;;5033568;28;20424;-47
2021/07/31 01:36:11;;;;;;;2.70;2.10;;;;;;;;;;5033711;28;20415;-47
2021/07/31 01:38:37;;;;;;;2.60;2.10;;;;;;;;;;5033444;28;20462;-47
2021/07/31 01:41:03;;;;;;;3.37;2.10;;;;;;;;;;5033099;28;20424;-47
2021/07/31 01:43:29;;;;;;;2.87;1.90;;;;;;;;;;5033258;28;20415;-47
2021/07/31 01:45:55;;;;;;;4.20;2.23;;;;;;;;;;5033119;28;20460;-47
2021/07/31 01:48:21;;;;;;;5.80;2.27;;;;;;;;;;5033123;28;20469;-48
2021/07/31 01:50:47;;;;;;;3.50;2.10;;;;;;;;;;5032902;28;20452;-47
2021/07/31 01:53:13;;;;;;;6.30;2.60;;;;;;;;;;5033032;28;20451;-48
2021/07/31 01:55:39;;;;;;;4.57;2.40;;;;;;;;;;5033413;28;20426;-49
2021/07/31 01:58:05;;;;;;;7.30;2.40;;;;;;;;;;5033441;28;20373;-47
2021/07/31 02:00:31;;;;;;;4.77;2.20;;;;;;;;;;5032389;28;20533;-48
2021/07/31 02:02:57;;;;;;;2.43;1.90;;;;;;;;;;5032637;28;20419;-48
2021/07/31 02:05:23;;;;;;;3.40;2.17;;;;;;;;;;5032768;28;20376;-47
2021/07/31 02:07:49;;;;;;;3.30;2.40;;;;;;;;;;5032719;28;20881;-47
2021/07/31 02:10:15;;;;;;;4.07;2.50;;;;;;;;;;5032399;28;20911;-47
2021/07/31 02:12:41;;;;;;;4.67;2.30;;;;;;;;;;5033190;28;20846;-47
2021/07/31 02:15:07;;;;;;;5.13;2.77;;;;;;;;;;5032506;28;20857;-47
2021/07/31 02:17:33;;;;;;;3.07;2.30;;;;;;;;;;5032606;28;20399;-47
2021/07/31 02:19:59;;;;;;;5.20;2.77;;;;;;;;;;5032175;28;20405;-47
2021/07/31 02:22:25;;;;;;;10.70;2.57;;;;;;;;;;5032616;28;20514;-47
2021/07/31 02:24:51;;;;;;;2.83;2.30;;;;;;;;;;5032419;28;20374;-47
2021/07/31 02:27:17;;;;;;;3.03;2.20;;;;;;;;;;5032252;28;20449;-47
2021/07/31 02:29:43;;;;;;;4.73;2.60;;;;;;;;;;5031910;28;20369;-47
2021/07/31 02:32:09;;;;;;;3.13;2.40;;;;;;;;;;5032256;28;20850;-47
2021/07/31 02:34:35;;;;;;;2.83;2.50;;;;;;;;;;5032173;28;20367;-48
2021/07/31 02:37:01;;;;;;;5.53;2.37;;;;;;;;;;5032177;28;20378;-48
2021/07/31 02:39:27;;;;;;;5.87;2.40;;;;;;;;;;5032089;28;20437;-48
2021/07/31 02:41:53;;;;;;;4.73;2.60;;;;;;;;;;5030467;28;20453;-48
2021/07/31 02:44:19;;;;;;;3.13;2.33;;;;;;;;;;5032030;28;20392;-47
2021/07/31 02:46:45;;;;;;;4.13;2.30;;;;;;;;;;5031951;28;20777;-47
2021/07/31 02:49:11;;;;;;;2.73;2.33;;;;;;;;;;5032048;28;20516;-48
2021/07/31 02:51:37;;;;;;;4.23;3.57;;;;;;;;;;5031541;28;20398;-47
2021/07/31 02:54:03;;;;;;;4.70;2.80;;;;;;;;;;5031818;28;20379;-48
2021/07/31 02:56:29;;;;;;;3.17;2.07;;;;;;;;;;5031768;28;20409;-47
2021/07/31 02:58:54;;;;;;;4.40;2.50;;;;;;;;;;5031725;28;20416;-47
2021/07/31 03:01:20;;;;;;;2.60;2.40;;;;;;;;;;5031593;28;20420;-48
2021/07/31 03:03:46;;;;;;;4.23;2.47;;;;;;;;;;5031529;28;20426;-48
2021/07/31 03:06:12;;;;;;;3.93;2.30;;;;;;;;;;5031658;28;20837;-49
2021/07/31 03:08:38;;;;;;;2.43;2.00;;;;;;;;;;5031511;28;20762;-49
2021/07/31 03:11:06;;;;;;;2.83;2.60;;;;;;;;;;5030724;28;20423;-48
2021/07/31 03:13:32;;;;;;;9.07;2.10;;;;;;;;;;5031387;28;20389;-47
2021/07/31 03:15:58;;;;;;;3.13;2.50;;;;;;;;;;5031424;28;20405;-47
2021/07/31 03:18:24;;;;;;;4.57;2.50;;;;;;;;;;5031398;28;20427;-47
2021/07/31 03:20:51;;;;;;;7.07;2.40;;;;;;;;;;5031169;28;20493;-47
2021/07/31 03:23:18;;;;;;;4.80;2.73;;;;;;;;;;5031433;28;20399;-48
2021/07/31 03:25:44;;;;;;;4.27;2.60;;;;;;;;;;5031231;28;20398;-47
2021/07/31 03:28:10;;;;;;;4.33;2.60;;;;;;;;;;5031394;28;20399;-47
2021/07/31 03:30:40;;;;;;;3.80;2.70;;;;;;;;;;5031031;28;20426;-47
2021/07/31 03:33:06;;;;;;;5.73;4.63;;;;;;;;;;5031328;28;20433;-48
2021/07/31 03:35:32;;;;;;;6.80;3.10;;;;;;;;;;5031444;28;20926;-48
2021/07/31 03:37:57;;;;;;;3.37;2.37;;;;;;;;;;5031471;28;20381;-47
2021/07/31 03:40:23;;;;;;;3.77;2.33;;;;;;;;;;5030801;28;20427;-47
2021/07/31 03:42:49;;;;;;;4.13;2.57;;;;;;;;;;5031135;28;20373;-49
2021/07/31 03:45:15;;;;;;;4.00;2.20;;;;;;;;;;5031099;28;20473;-49
2021/07/31 03:47:41;;;;;;;2.60;2.40;;;;;;;;;;5030966;28;20557;-48
2021/07/31 03:50:08;;;;;;;4.50;2.40;;;;;;;;;;5030776;28;20425;-48
2021/07/31 03:52:34;;;;;;;2.47;2.27;;;;;;;;;;5031027;28;20769;-48
2021/07/31 03:55:00;;;;;;;4.40;2.50;;;;;;;;;;5030841;28;20982;-49
2021/07/31 03:57:25;;;;;;;3.00;2.63;;;;;;;;;;5030910;28;20413;-47
2021/07/31 03:59:51;;;;;;;2.70;2.30;;;;;;;;;;5030534;28;20771;-46
2021/07/31 04:02:17;;;;;;;3.73;2.43;;;;;;;;;;5030650;28;20739;-47
2021/07/31 04:04:43;;;;;;;6.53;3.20;;;;;;;;;;5030774;28;20410;-47
2021/07/31 04:07:09;;;;;;;4.63;2.30;;;;;;;;;;5030670;28;20546;-47
2021/07/31 04:09:35;;;;;;;4.03;2.47;;;;;;;;;;5030495;28;20966;-47
2021/07/31 04:12:01;;;;;;;7.17;2.53;;;;;;;;;;5030464;28;20930;-48
2021/07/31 04:14:29;;;;;;;6.87;3.00;;;;;;;;;;5030626;28;20425;-47
2021/07/31 04:16:55;;;;;;;4.97;2.23;;;;;;;;;;5030723;28;20379;-48
2021/07/31 04:19:21;;;;;;;2.73;2.40;;;;;;;;;;5030677;28;21168;-47
2021/07/31 04:21:51;;;;;;;7.07;2.53;;;;;;;;;;5030269;28;20486;-47
2021/07/31 04:24:17;;;;;;;8.67;2.57;;;;;;;;;;5032242;28;20448;-47
2021/07/31 04:26:43;;;;;;;3.30;2.40;;;;;;;;;;5034493;28;20741;-47
2021/07/31 04:29:09;;;;;;;11.77;2.77;;;;;;;;;;5034550;28;20403;-47
2021/07/31 04:31:34;;;;;;;4.27;2.70;;;;;;;;;;5034157;28;20427;-48
2021/07/31 04:34:01;;;;;;;4.77;2.80;;;;;;;;;;5034899;28;20377;-49
2021/07/31 04:36:27;;;;;;;5.13;2.60;;;;;;;;;;5034413;28;20377;-48
2021/07/31 04:38:53;;;;;;;3.17;2.23;;;;;;;;;;5034288;28;20464;-47
2021/07/31 04:41:19;;;;;;;4.17;2.40;;;;;;;;;;5033996;28;20774;-47
2021/07/31 04:43:45;;;;;;;5.00;2.67;;;;;;;;;;5034300;28;20377;-48
2021/07/31 04:46:11;;;;;;;3.17;2.93;;;;;;;;;;5034140;28;20428;-47
2021/07/31 04:48:37;;;;;;;2.97;2.70;;;;;;;;;;5034259;28;20378;-48
2021/07/31 04:51:04;;;;;;;7.07;2.73;;;;;;;;;;5033773;28;20442;-47
2021/07/31 04:53:31;;;;;;;8.67;2.83;;;;;;;;;;5034385;28;20414;-47
2021/07/31 04:55:57;;;;;;;2.20;2.10;;;;;;;;;;5034094;28;20395;-47
2021/07/31 04:58:23;;;;;;;6.17;2.57;;;;;;;;;;5034063;28;20389;-47
2021/07/31 05:00:50;;;;;;;4.73;2.43;;;;;;;;;;5033667;28;20389;-48
2021/07/31 05:03:16;;;;;;;3.70;3.30;;;;;;;;;;5033873;28;20397;-48
2021/07/31 05:05:45;;;;;;;5.50;3.03;;;;;;;;;;5033939;28;20448;-48
2021/07/31 06:17:49;;;;;;;3.03;2.63;;;;;;;;;;4972207;28;20595;-51
2021/07/31 06:20:15;;;;;;;7.10;2.97;;;;;;;;;;4973531;28;20475;-51
2021/07/31 06:22:41;;;;;;;9.80;3.00;;;;;;;;;;4973776;28;20394;-51
2021/07/31 06:25:07;;;;;;;5.43;2.60;;;;;;;;;;4973614;28;20373;-50
2021/07/31 06:27:33;;;;;;;4.67;2.67;;;;;;;;;;4973424;28;20515;-51
2021/07/31 06:29:59;;;;;;;2.73;2.27;;;;;;;;;;5015760;22;20504;-47
2021/07/31 06:32:25;;;;;;;4.90;2.87;;;;;;;;;;5012417;28;20390;-47
2021/07/31 06:34:51;;;;;;;4.40;3.13;;;;;;;;;;5012653;28;20724;-46
2021/07/31 06:37:16;;;;;;;3.03;2.70;;;;;;;;;;5012350;28;20470;-47
2021/07/31 06:39:42;;;;;;;6.03;2.90;;;;;;;;;;5012086;28;20424;-47
2021/07/31 06:42:10;;;;;;;8.47;2.47;;;;;;;;;;5012316;28;20372;-46
2021/07/31 06:44:36;;;;;;;3.40;3.10;;;;;;;;;;5012554;28;20441;-47
2021/07/31 06:47:02;;;;;;;8.20;2.40;;;;;;;;;;5011059;28;20493;-47
2021/07/31 06:49:28;;;;;;;9.87;2.97;;;;;;;;;;5012234;28;20920;-47
2021/07/31 06:51:54;;;;;;;2.90;2.10;;;;;;;;;;5011912;28;20405;-46
2021/07/31 06:54:20;;;;;;;5.63;2.77;;;;;;;;;;5012325;28;20412;-47
2021/07/31 06:56:46;;;;;;;5.07;3.03;;;;;;;;;;5012126;28;20421;-47
2021/07/31 06:59:12;;;;;;;3.90;2.70;;;;;;;;;;5012171;28;20404;-47
2021/07/31 07:01:38;;;;;;;2.63;2.43;;;;;;;;;;5011656;28;20464;-47
2021/07/31 07:04:04;;;;;;;6.03;2.77;;;;;;;;;;5012003;28;20476;-47
2021/07/31 07:06:30;;;;;;;4.13;3.30;;;;;;;;;;5011772;28;20472;-47
2021/07/31 07:08:56;;;;;;;6.03;2.73;;;;;;;;;;5011863;28;20418;-46
2021/07/31 07:11:22;;;;;;;6.60;2.80;;;;;;;;;;5011574;28;20834;-47
2021/07/31 07:13:48;;;;;;;3.00;2.67;;;;;;;;;;5011857;28;20412;-47
2021/07/31 07:16:14;;;;;;;4.73;3.17;;;;;;;;;;5011620;28;20504;-47
2021/07/31 07:18:40;;;;;;;9.47;2.73;;;;;;;;;;5011917;28;20454;-47
2021/07/31 07:21:10;;;;;;;4.80;2.73;;;;;;;;;;5011825;28;20410;-46
2021/07/31 07:23:36;;;;;;;3.00;2.40;;;;;;;;;;5011923;28;20694;-47
2021/07/31 07:26:02;;;;;;;3.30;3.00;;;;;;;;;;5012132;28;20411;-46
2021/07/31 07:28:28;;;;;;;6.27;3.30;;;;;;;;;;5011767;28;20498;-47
2021/07/31 07:30:55;;;;;;;3.23;2.47;;;;;;;;;;5011130;28;20514;-47
2021/07/31 07:33:21;;;;;;;6.07;2.73;;;;;;;;;;5011636;28;20411;-46
2021/07/31 07:35:47;;;;;;;3.10;2.30;;;;;;;;;;5011471;28;20772;-47
2021/07/31 07:38:13;;;;;;;3.20;2.63;;;;;;;;;;5011360;28;20402;-47
2021/07/31 07:40:39;;;;;;;2.57;2.23;;;;;;;;;;5011037;28;20410;-47
2021/07/31 07:43:05;;;;;;;3.30;2.73;;;;;;;;;;5011417;28;20426;-47
2021/07/31 07:45:31;;;;;;;5.00;2.47;;;;;;;;;;5011292;28;20409;-47
2021/07/31 07:47:56;;;;;;;5.03;2.83;;;;;;;;;;5011192;28;20812;-47
2021/07/31 07:50:22;;;;;;;4.70;2.33;;;;;;;;;;5010943;28;20864;-47
2021/07/31 07:52:48;;;;;;;3.93;2.57;;;;;;;;;;5011249;28;20824;-47
2021/07/31 07:55:14;;;;;;;2.50;2.30;;;;;;;;;;5011269;28;20404;-47
2021/07/31 07:57:41;;;;;;;2.63;2.40;;;;;;;;;;5010925;28;20408;-47
2021/07/31 08:00:07;;;;;;;2.93;2.70;;;;;;;;;;5010775;28;20474;-47
2021/07/31 08:02:34;;;;;;;6.13;2.80;;;;;;;;;;5010553;28;20412;-47
2021/07/31 08:05:00;;;;;;;4.10;2.20;;;;;;;;;;5010678;28;20454;-47
2021/07/31 08:07:26;;;;;;;5.43;2.30;;;;;;;;;;5010252;28;20458;-47
2021/07/31 08:09:52;;;;;;;2.77;2.20;;;;;;;;;;5010189;28;20454;-47
2021/07/31 08:12:18;;;;;;;2.50;2.00;;;;;;;;;;5009860;28;20416;-47
2021/07/31 08:14:45;;;;;;;4.67;2.50;;;;;;;;;;5011976;28;20444;-47
2021/07/31 08:17:11;;;;;;;4.53;2.60;;;;;;;;;;5010323;28;20786;-47
2021/07/31 08:19:37;;;;;;;3.00;1.97;;;;;;;;;;5009997;28;20427;-47
2021/07/31 08:22:03;;;;;;;2.40;1.90;;;;;;;;;;5010244;28;20402;-48
2021/07/31 08:24:29;;;;;;;4.73;1.80;;;;;;;;;;5010287;28;20426;-47
2021/07/31 08:26:55;;;;;;;2.53;2.10;;;;;;;;;;5010152;28;20952;-47
2021/07/31 08:29:21;;;;;;;7.83;1.60;;;;;;;;;;4992809;28;20441;-48
2021/07/31 08:31:49;;;;;;;3.37;2.00;;;;;;;;;;5010679;28;20570;-47
2021/07/31 08:34:16;;;;;;;6.33;2.33;;;;;;;;;;5010854;28;20400;-47
2021/07/31 08:36:42;;;;;;;4.63;1.83;;;;;;;;;;5010866;28;20415;-47
2021/07/31 08:39:08;;;;;;;2.30;1.70;;;;;;;;;;5011004;28;20434;-46
2021/07/31 08:41:34;;;;;;;3.03;1.63;;;;;;;;;;5010496;28;20415;-47
2021/07/31 08:44:01;;;;;;;4.33;1.63;;;;;;;;;;5010669;28;20556;-47
2021/07/31 08:46:27;;;;;;;2.93;1.43;;;;;;;;;;5010932;28;20469;-48
2021/07/31 08:48:54;;;;;;;3.10;1.87;;;;;;;;;;5010624;28;20562;-47
2021/07/31 08:51:20;;;;;;;1.63;1.53;;;;;;;;;;5010586;28;20403;-47
2021/07/31 08:53:46;;;;;;;3.80;1.63;;;;;;;;;;5010571;28;20917;-47
2021/07/31 08:56:12;;;;;;;3.10;2.27;;;;;;;;;;5010596;28;20416;-47
2021/07/31 08:58:41;;;;;;;2.60;2.13;;;;;;;;;;5010595;28;20897;-48
2021/07/31 09:01:08;;;;;;;2.13;2.03;;;;;;;;;;5010643;28;20434;-47
2021/07/31 09:03:44;;;;;;;9.43;3.10;;;;;;;;;;5010642;28;20407;-47
2021/07/31 09:06:24;;;;;;;6.57;2.50;;;;;;;;;;5010760;28;20407;-47
2021/07/31 09:08:53;;;;;;;3.10;2.33;;;;;;;;;;5010496;28;20479;-48
2021/07/31 09:11:20;;;;;;;3.90;2.00;;;;;;;;;;5013536;28;20427;-47
2021/07/31 09:13:45;;;;;;;2.00;1.83;;;;;;;;;;5014551;28;20887;-48
2021/07/31 09:16:11;;;;;;;3.10;2.23;;;;;;;;;;5014482;28;20421;-48
2021/07/31 09:18:44;;;;;;;4.63;1.73;;;;;;;;;;5014572;28;20427;-47
2021/07/31 09:21:12;;;;;;;2.17;1.80;;;;;;;;;;5014498;28;20402;-48
2021/07/31 09:23:45;;;;;;;2.00;1.70;;;;;;;;;;5014245;28;20392;-47
2021/07/31 09:26:15;;;;;;;7.40;2.27;;;;;;;;;;5013970;28;20456;-47
2021/07/31 09:28:42;;;;;;;4.60;2.07;;;;;;;;;;5013809;28;20434;-47
2021/07/31 09:31:16;;;;;;;1.87;1.73;;;;;;;;;;5013706;28;20403;-47
2021/07/31 09:33:47;;;;;;;3.27;2.07;;;;;;;;;;5013679;28;20397;-47
2021/07/31 09:36:13;;;;;;;3.67;2.07;;;;;;;;;;5013977;28;20391;-48
2021/07/31 09:38:44;;;;;;;6.13;2.10;;;;;;;;;;5013545;28;20418;-47
2021/07/31 09:41:22;;;;;;;4.03;2.40;;;;;;;;;;5013403;28;20399;-47
2021/07/31 09:44:03;;;;;;;1.90;1.80;;;;;;;;;;5013424;28;20988;-47
2021/07/31 09:46:37;;;;;;;3.10;1.80;;;;;;;;;;5013641;28;20837;-46
2021/07/31 09:49:03;;;;;;;3.10;2.10;;;;;;;;;;5013364;28;20437;-48
2021/07/31 09:51:33;;;;;;;3.17;2.30;;;;;;;;;;5013126;28;20520;-47
2021/07/31 09:54:03;;;;;;;4.57;2.30;;;;;;;;;;5013305;28;20490;-47
2021/07/31 09:56:35;;;;;;;2.53;2.20;;;;;;;;;;5013299;28;20468;-47
2021/07/31 09:59:01;;;;;;;3.20;2.40;;;;;;;;;;5013177;28;20456;-47
2021/07/31 10:01:29;;;;;;;5.17;2.83;;;;;;;;;;5012986;28;20450;-47
2021/07/31 10:03:55;;;;;;;4.40;2.37;;;;;;;;;;5013086;28;20430;-47
2021/07/31 10:06:22;;;;;;;3.00;2.70;;;;;;;;;;5013103;28;20940;-47
2021/07/31 10:08:49;;;;;;;3.60;2.10;;;;;;;;;;5012991;28;20951;-47
2021/07/31 10:11:15;;;;;;;2.63;2.40;;;;;;;;;;5012757;28;20883;-47
2021/07/31 10:13:41;;;;;;;4.17;2.83;;;;;;;;;;5012879;28;20414;-47
2021/07/31 10:16:07;;;;;;;3.80;2.40;;;;;;;;;;5012930;28;20459;-47
2021/07/31 10:18:33;;;;;;;3.93;2.37;;;;;;;;;;5012803;28;20419;-47
2021/07/31 10:21:06;;;;;;;2.07;1.97;;;;;;;;;;5012495;28;20401;-47
2021/07/31 10:23:52;;;;;;;6.47;2.57;;;;;;;;;;5012718;28;20408;-46
2021/07/31 10:26:18;;;;;;;4.60;2.70;;;;;;;;;;5012480;28;20434;-46
2021/07/31 10:28:44;;;;;;;8.73;2.77;;;;;;;;;;5012422;28;20505;-47
2021/07/31 10:31:29;;;;;;;2.90;2.30;;;;;;;;;;5012408;28;20407;-46
2021/07/31 10:33:55;;;;;;;3.00;2.60;;;;;;;;;;5012393;28;20391;-47
2021/07/31 10:36:29;;;;;;;3.30;2.60;;;;;;;;;;5012322;28;20434;-47
2021/07/31 10:38:55;;;;;;;2.50;2.30;;;;;;;;;;5012431;28;20784;-46
2021/07/31 10:41:39;;;;;;;3.00;2.70;;;;;;;;;;5012199;28;20410;-47
2021/07/31 10:44:09;;;;;;;8.33;2.47;;;;;;;;;;5010973;28;20498;-47
2021/07/31 10:46:35;;;;;;;2.60;2.40;;;;;;;;;;5012716;28;20451;-47
2021/07/31 10:49:19;;;;;;;2.70;2.20;;;;;;;;;;5012221;28;20476;-47
2021/07/31 10:51:45;;;;;;;1.93;1.83;;;;;;;;;;5012016;28;20455;-47
2021/07/31 10:54:11;;;;;;;2.93;2.63;;;;;;;;;;5012290;28;20403;-46
2021/07/31 10:56:56;;;;;;;2.50;2.30;;;;;;;;;;5012217;28;20401;-47
2021/07/31 10:59:22;;;;;;;3.30;2.47;;;;;;;;;;5011937;28;20498;-46
2021/07/31 11:01:49;;;;;;;2.40;2.20;;;;;;;;;;5011750;28;20398;-48
2021/07/31 11:04:47;;;;;;;2.57;2.13;;;;;;;;;;5012210;28;20476;-46
2021/07/31 11:07:13;;;;;;;5.90;2.20;;;;;;;;;;4968366;28;21020;-46
2021/07/31 11:09:39;;;;;;;2.37;2.27;;;;;;;;;;5011634;28;20462;-46
2021/07/31 11:12:24;;;;;;;2.80;2.27;;;;;;;;;;5011802;28;20411;-46
2021/07/31 11:15:09;;;;;;;2.40;2.30;;;;;;;;;;5011961;28;20413;-46
2021/07/31 11:17:37;;;;;;;6.40;2.50;;;;;;;;;;5011881;28;20401;-47
2021/07/31 11:20:24;;;;;;;1.93;1.67;;;;;;;;;;5011315;28;20481;-46
2021/07/31 11:22:50;;;;;;;5.63;2.00;;;;;;;;;;5011758;28;20904;-47
2021/07/31 11:25:18;;;;;;;2.23;1.83;;;;;;;;;;5011899;28;20428;-46
2021/07/31 11:27:53;;;;;;;2.57;2.10;;;;;;;;;;5011538;28;20951;-46
2021/07/31 11:30:19;;;;;;;2.13;2.03;;;;;;;;;;5011110;28;21033;-47
2021/07/31 11:32:45;;;;;;;2.00;1.90;;;;;;;;;;5011138;28;20486;-46
2021/07/31 11:35:25;;;;;;;6.23;2.43;;;;;;;;;;5012034;28;20498;-46
2021/07/31 11:37:51;;;;;;;2.30;2.20;;;;;;;;;;5011491;28;20402;-47
2021/07/31 11:40:17;;;;;;;2.13;1.90;;;;;;;;;;5011372;28;20799;-47
2021/07/31 11:42:43;;;;;;;2.20;1.97;;;;;;;;;;5011260;28;20775;-47
2021/07/31 11:45:09;;;;;;;4.13;1.90;;;;;;;;;;5011592;28;20485;-46
2021/07/31 11:47:37;;;;;;;3.30;1.60;;;;;;;;;;5011705;28;20451;-46
2021/07/31 11:50:07;;;;;;;2.60;1.83;;;;;;;;;;5010933;28;20430;-46
2021/07/31 11:52:33;;;;;;;2.23;1.70;;;;;;;;;;5011219;28;20418;-47
2021/07/31 11:55:00;;;;;;;2.27;2.17;;;;;;;;;;5011244;28;20398;-47
2021/07/31 11:57:26;;;;;;;1.70;1.60;;;;;;;;;;5010984;28;20411;-46
2021/07/31 11:59:52;;;;;;;2.50;2.30;;;;;;;;;;5010811;28;20576;-47
2021/07/31 12:02:36;;;;;;;2.50;2.30;;;;;;;;;;5011196;28;20978;-47
2021/07/31 12:05:05;;;;;;;1.90;1.80;;;;;;;;;;5011093;28;20780;-47
2021/07/31 12:07:31;;;;;;;1.80;1.70;;;;;;;;;;5010936;28;21088;-46
2021/07/31 12:10:00;;;;;;;2.60;1.90;;;;;;;;;;5010639;28;20806;-46
2021/07/31 12:12:27;;;;;;;2.30;2.10;;;;;;;;;;5011269;28;20891;-47
2021/07/31 12:15:12;;;;;;;2.07;1.73;;;;;;;;;;5011080;28;20402;-46
2021/07/31 12:17:38;;;;;;;3.57;1.87;;;;;;;;;;5010888;28;20765;-47
2021/07/31 12:20:05;;;;;;;2.20;2.10;;;;;;;;;;5010577;28;20514;-46
2021/07/31 12:22:34;;;;;;;2.67;2.20;;;;;;;;;;5010812;28;20486;-46
2021/07/31 12:25:16;;;;;;;1.77;1.60;;;;;;;;;;5010846;28;20411;-46
2021/07/31 12:28:01;;;;;;;2.20;2.10;;;;;;;;;;5010795;28;20513;-47
2021/07/31 12:30:37;;;;;;;3.97;2.23;;;;;;;;;;4993445;22;20499;-46
2021/07/31 12:33:06;;;;;;;3.90;2.23;;;;;;;;;;4972028;28;20422;-46
2021/07/31 12:35:32;;;;;;;2.37;2.17;;;;;;;;;;4971701;28;20400;-46
2021/07/31 12:37:58;;;;;;;2.90;2.70;;;;;;;;;;4970551;28;20409;-46
2021/07/31 12:40:24;;;;;;;2.40;2.00;;;;;;;;;;4971400;28;20512;-47
2021/07/31 12:42:50;;;;;;;5.43;2.20;;;;;;;;;;4971850;28;20401;-46
2021/07/31 12:45:17;;;;;;;2.43;2.23;;;;;;;;;;4973284;28;20405;-46
2021/07/31 12:47:42;;;;;;;2.90;2.33;;;;;;;;;;4975538;28;20487;-46
2021/07/31 12:50:09;;;;;;;2.60;2.40;;;;;;;;;;4975324;28;20520;-46
2021/07/31 12:52:34;;;;;;;2.33;2.00;;;;;;;;;;4974785;28;20613;-46
2021/07/31 12:55:01;;;;;;;2.50;2.30;;;;;;;;;;4959422;28;20533;-49
2021/07/31 12:57:27;;;;;;;2.83;2.17;;;;;;;;;;4958948;28;20436;-46
2021/07/31 12:59:57;;;;;;;3.07;2.33;;;;;;;;;;4976850;28;20424;-47
2021/07/31 13:02:24;;;;;;;3.57;2.13;;;;;;;;;;4972966;28;20439;-47
2021/07/31 13:04:49;;;;;;;2.47;2.10;;;;;;;;;;4971613;28;20436;-47
2021/07/31 13:07:15;;;;;;;2.53;2.33;;;;;;;;;;4972330;28;20472;-47
2021/07/31 13:09:42;;;;;;;5.93;2.57;;;;;;;;;;4973327;28;20428;-46
2021/07/31 13:12:08;;;;;;;3.47;1.93;;;;;;;;;;4974996;28;20914;-47
2021/07/31 13:14:34;;;;;;;2.80;2.43;;;;;;;;;;4974889;28;20404;-47
2021/07/31 13:17:00;;;;;;;2.53;2.40;;;;;;;;;;4974894;28;20487;-46
2021/07/31 13:19:26;;;;;;;3.10;2.00;;;;;;;;;;4975131;28;20919;-47
2021/07/31 13:21:53;;;;;;;2.70;2.50;;;;;;;;;;4974596;28;20401;-47
2021/07/31 13:24:19;;;;;;;3.43;3.13;;;;;;;;;;4974704;28;20958;-47
2021/07/31 13:26:45;;;;;;;3.00;2.47;;;;;;;;;;4974486;28;20475;-47
2021/07/31 13:29:11;;;;;;;3.17;2.50;;;;;;;;;;4974790;28;20473;-46
2021/07/31 13:31:40;;;;;;;3.13;2.83;;;;;;;;;;4974461;28;20609;-47
2021/07/31 13:34:06;;;;;;;3.77;2.40;;;;;;;;;;4974457;28;20422;-47
2021/07/31 13:36:32;;;;;;;1.97;1.87;;;;;;;;;;4974440;28;20471;-47
2021/07/31 13:39:00;;;;;;;8.93;2.67;;;;;;;;;;4974441;28;20495;-47
2021/07/31 13:41:26;;;;;;;2.73;2.27;;;;;;;;;;4974201;28;20409;-47
2021/07/31 13:43:53;;;;;;;3.67;2.10;;;;;;;;;;4974632;28;20425;-46
2021/07/31 13:46:19;;;;;;;2.00;1.90;;;;;;;;;;4974535;28;20417;-46
2021/07/31 13:48:45;;;;;;;3.73;2.17;;;;;;;;;;4974257;28;20467;-47
2021/07/31 13:51:11;;;;;;;2.30;2.10;;;;;;;;;;4973995;28;20482;-47
2021/07/31 13:53:37;;;;;;;3.27;1.93;;;;;;;;;;4974077;28;20510;-47
2021/07/31 13:56:03;;;;;;;4.57;2.30;;;;;;;;;;4973748;28;20431;-47
2021/07/31 13:58:29;;;;;;;3.80;2.10;;;;;;;;;;4973897;28;20468;-47
2021/07/31 14:00:56;;;;;;;2.23;2.10;;;;;;;;;;4974158;28;20412;-47
2021/07/31 14:03:22;;;;;;;2.73;2.53;;;;;;;;;;4973877;28;20405;-47
2021/07/31 14:05:48;;;;;;;3.37;2.20;;;;;;;;;;4973790;28;20413;-47
2021/07/31 14:08:14;;;;;;;3.10;2.20;;;;;;;;;;4973801;28;20472;-47
2021/07/31 14:10:40;;;;;;;3.70;2.60;;;;;;;;;;4973570;28;20452;-47
2021/07/31 14:13:06;;;;;;;3.80;2.60;;;;;;;;;;4973701;28;20408;-47
2021/07/31 14:15:32;;;;;;;3.67;3.00;;;;;;;;;;4973756;28;20820;-47
2021/07/31 14:17:58;;;;;;;3.20;2.90;;;;;;;;;;4973766;28;20831;-47
2021/07/31 14:20:24;;;;;;;4.20;2.63;;;;;;;;;;4974071;28;20425;-47
2021/07/31 14:22:50;;;;;;;4.90;3.10;;;;;;;;;;4973771;28;20809;-47
2021/07/31 14:25:16;;;;;;;3.30;2.50;;;;;;;;;;4973514;28;20479;-47
2021/07/31 14:27:42;;;;;;;3.37;2.87;;;;;;;;;;4973528;28;20702;-47
2021/07/31 14:30:08;;;;;;;5.00;2.77;;;;;;;;;;4972869;28;20440;-47
2021/07/31 14:32:34;;;;;;;2.57;2.30;;;;;;;;;;4973415;28;20466;-47
2021/07/31 14:35:01;;;;;;;5.30;3.50;;;;;;;;;;4973495;28;20448;-47
2021/07/31 14:37:27;;;;;;;3.67;3.37;;;;;;;;;;4973603;28;20412;-47
2021/07/31 14:39:53;;;;;;;6.87;2.63;;;;;;;;;;4973148;28;20433;-47
2021/07/31 14:42:19;;;;;;;4.60;2.87;;;;;;;;;;4973365;28;20771;-47
2021/07/31 14:44:45;;;;;;;3.37;2.40;;;;;;;;;;4973542;28;20914;-47
2021/07/31 14:47:13;;;;;;;5.07;3.70;;;;;;;;;;4973406;28;20451;-47
2021/07/31 14:49:39;;;;;;;2.63;2.43;;;;;;;;;;4973240;28;20503;-47
2021/07/31 14:52:05;;;;;;;5.13;3.37;;;;;;;;;;4973350;28;20899;-47
2021/07/31 14:54:31;;;;;;;3.20;2.53;;;;;;;;;;4973507;28;20402;-47
2021/07/31 14:56:57;;;;;;;4.03;2.63;;;;;;;;;;4973457;28;20501;-48
2021/07/31 14:59:23;;;;;;;3.57;3.27;;;;;;;;;;4973308;28;20432;-47
2021/07/31 15:01:49;;;;;;;6.17;2.97;;;;;;;;;;4972828;28;20466;-47
2021/07/31 15:04:15;;;;;;;3.53;3.23;;;;;;;;;;4973171;28;20444;-46
2021/07/31 15:06:41;;;;;;;4.80;4.37;;;;;;;;;;4972735;28;20456;-46
2021/07/31 15:09:07;;;;;;;4.00;3.43;;;;;;;;;;4972302;28;20426;-47
2021/07/31 15:11:33;;;;;;;4.03;3.73;;;;;;;;;;4972690;28;20403;-47
2021/07/31 15:13:59;;;;;;;3.97;3.67;;;;;;;;;;4972787;28;20498;-47
2021/07/31 15:16:24;;;;;;;4.03;3.73;;;;;;;;;;4973008;28;20409;-47
2021/07/31 15:18:50;;;;;;;4.33;4.03;;;;;;;;;;4971951;28;20425;-47
2021/07/31 15:21:17;;;;;;;4.67;4.33;;;;;;;;;;4972065;28;20398;-47
2021/07/31 15:23:43;;;;;;;4.00;3.73;;;;;;;;;;4972447;28;20393;-47
2021/07/31 15:26:09;;;;;;;4.90;4.50;;;;;;;;;;4972465;28;20492;-47
2021/07/31 15:28:36;;;;;;;4.63;3.53;;;;;;;;;;4972386;28;20437;-47
2021/07/31 15:31:02;;;;;;;4.83;4.00;;;;;;;;;;4972199;28;20478;-46
2021/07/31 15:33:28;;;;;;;3.90;3.60;;;;;;;;;;4972459;28;20772;-47
2021/07/31 15:35:55;;;;;;;4.63;3.43;;;;;;;;;;4972520;28;20424;-47
2021/07/31 15:38:21;;;;;;;4.23;3.83;;;;;;;;;;4972142;28;20769;-47
2021/07/31 15:40:47;;;;;;;3.50;3.00;;;;;;;;;;4972240;28;20444;-47
2021/07/31 15:43:13;;;;;;;6.10;3.97;;;;;;;;;;4972288;28;20936;-47
2021/07/31 15:45:39;;;;;;;3.97;3.50;;;;;;;;;;4972211;28;20773;-47
2021/07/31 15:48:05;;;;;;;3.40;3.10;;;;;;;;;;4972136;28;20959;-47
2021/07/31 15:50:31;;;;;;;3.83;3.40;;;;;;;;;;4971951;28;20511;-47
2021/07/31 15:52:57;;;;;;;4.10;3.70;;;;;;;;;;4971809;28;20861;-47